sensor_id;sensor_type;location;lat;lon;timestamp;P1;durP1;ratioP1;P2;durP2;ratioP2
13421;SDS011;6782;55.904;13.396;2023-11-22T00:00:00;5.87;;;4.20;;
13421;SDS011;6782;55.904;13.396;2023-11-22T00:02:49;5.97;;;4.60;;
13421;SDS011;6782;55.904;13.396;2023-11-22T00:05:36;5.83;;;4.10;;
13421;SDS011;6782;55.904;13.396;2023-11-22T00:08:23;4.53;;;3.60;;
13421;SDS011;6782;55.904;13.396;2023-11-22T00:11:10;5.00;;;4.10;;
13421;SDS011;6782;55.904;13.396;2023-11-22T00:13:58;5.17;;;4.27;;
13421;SDS011;6782;55.904;13.396;2023-11-22T00:16:46;7.33;;;4.40;;
13421;SDS011;6782;55.904;13.396;2023-11-22T00:19:34;5.53;;;4.73;;
13421;SDS011;6782;55.904;13.396;2023-11-22T00:22:21;5.40;;;4.13;;
13421;SDS011;6782;55.904;13.396;2023-11-22T00:25:09;6.07;;;4.50;;
13421;SDS011;6782;55.904;13.396;2023-11-22T00:27:58;5.23;;;4.10;;
13421;SDS011;6782;55.904;13.396;2023-11-22T00:30:45;4.63;;;4.13;;
13421;SDS011;6782;55.904;13.396;2023-11-22T00:33:32;3.83;;;3.37;;
13421;SDS011;6782;55.904;13.396;2023-11-22T00:36:21;4.13;;;3.73;;
13421;SDS011;6782;55.904;13.396;2023-11-22T00:39:08;5.40;;;4.17;;
13421;SDS011;6782;55.904;13.396;2023-11-22T00:41:58;4.77;;;3.67;;
13421;SDS011;6782;55.904;13.396;2023-11-22T00:44:45;4.10;;;3.70;;
13421;SDS011;6782;55.904;13.396;2023-11-22T00:47:32;5.03;;;4.53;;
13421;SDS011;6782;55.904;13.396;2023-11-22T00:50:19;5.77;;;4.20;;
13421;SDS011;6782;55.904;13.396;2023-11-22T00:53:09;4.30;;;3.90;;
13421;SDS011;6782;55.904;13.396;2023-11-22T00:55:56;3.90;;;3.30;;
13421;SDS011;6782;55.904;13.396;2023-11-22T00:58:43;3.70;;;3.40;;
13421;SDS011;6782;55.904;13.396;2023-11-22T01:01:30;4.73;;;3.40;;
13421;SDS011;6782;55.904;13.396;2023-11-22T01:04:18;4.63;;;3.80;;
13421;SDS011;6782;55.904;13.396;2023-11-22T01:07:05;4.47;;;3.57;;
13421;SDS011;6782;55.904;13.396;2023-11-22T01:09:54;3.80;;;3.43;;
13421;SDS011;6782;55.904;13.396;2023-11-22T01:12:41;3.90;;;3.57;;
13421;SDS011;6782;55.904;13.396;2023-11-22T01:15:28;5.03;;;4.00;;
13421;SDS011;6782;55.904;13.396;2023-11-22T01:18:15;4.47;;;3.60;;
13421;SDS011;6782;55.904;13.396;2023-11-22T01:21:03;5.10;;;3.80;;
13421;SDS011;6782;55.904;13.396;2023-11-22T01:23:50;4.20;;;3.80;;
13421;SDS011;6782;55.904;13.396;2023-11-22T01:26:39;4.77;;;4.03;;
13421;SDS011;6782;55.904;13.396;2023-11-22T01:29:26;3.30;;;3.00;;
13421;SDS011;6782;55.904;13.396;2023-11-22T01:32:14;3.80;;;3.10;;
13421;SDS011;6782;55.904;13.396;2023-11-22T01:35:02;3.67;;;3.27;;
13421;SDS011;6782;55.904;13.396;2023-11-22T01:37:51;4.73;;;3.77;;
13421;SDS011;6782;55.904;13.396;2023-11-22T01:40:43;5.43;;;4.00;;
13421;SDS011;6782;55.904;13.396;2023-11-22T01:43:34;4.73;;;3.93;;
13421;SDS011;6782;55.904;13.396;2023-11-22T01:46:25;4.43;;;3.90;;
13421;SDS011;6782;55.904;13.396;2023-11-22T01:49:12;5.13;;;3.77;;
13421;SDS011;6782;55.904;13.396;2023-11-22T01:52:00;5.13;;;4.47;;
13421;SDS011;6782;55.904;13.396;2023-11-22T01:54:48;5.33;;;4.03;;
13421;SDS011;6782;55.904;13.396;2023-11-22T01:57:35;5.90;;;3.90;;
13421;SDS011;6782;55.904;13.396;2023-11-22T02:00:24;5.03;;;3.97;;
13421;SDS011;6782;55.904;13.396;2023-11-22T02:03:12;4.57;;;4.10;;
13421;SDS011;6782;55.904;13.396;2023-11-22T02:05:59;4.00;;;3.60;;
13421;SDS011;6782;55.904;13.396;2023-11-22T02:08:47;3.80;;;3.40;;
13421;SDS011;6782;55.904;13.396;2023-11-22T02:11:34;4.77;;;3.77;;
13421;SDS011;6782;55.904;13.396;2023-11-22T02:14:21;5.23;;;3.93;;
13421;SDS011;6782;55.904;13.396;2023-11-22T02:17:09;6.50;;;3.67;;
13421;SDS011;6782;55.904;13.396;2023-11-22T02:19:56;6.13;;;4.10;;
13421;SDS011;6782;55.904;13.396;2023-11-22T02:22:44;4.43;;;3.83;;
13421;SDS011;6782;55.904;13.396;2023-11-22T02:25:33;5.20;;;3.93;;
13421;SDS011;6782;55.904;13.396;2023-11-22T02:28:21;5.07;;;3.90;;
13421;SDS011;6782;55.904;13.396;2023-11-22T02:31:08;4.70;;;3.73;;
13421;SDS011;6782;55.904;13.396;2023-11-22T02:33:55;4.50;;;3.47;;
13421;SDS011;6782;55.904;13.396;2023-11-22T02:36:42;4.20;;;3.60;;
13421;SDS011;6782;55.904;13.396;2023-11-22T02:39:32;3.83;;;3.43;;
13421;SDS011;6782;55.904;13.396;2023-11-22T02:42:29;4.57;;;3.90;;
13421;SDS011;6782;55.904;13.396;2023-11-22T02:45:16;4.30;;;3.50;;
13421;SDS011;6782;55.904;13.396;2023-11-22T02:48:04;3.20;;;2.90;;
13421;SDS011;6782;55.904;13.396;2023-11-22T02:50:54;5.07;;;3.30;;
13421;SDS011;6782;55.904;13.396;2023-11-22T02:53:41;3.60;;;3.13;;
13421;SDS011;6782;55.904;13.396;2023-11-22T02:56:31;3.80;;;3.23;;
13421;SDS011;6782;55.904;13.396;2023-11-22T02:59:19;5.27;;;3.63;;
13421;SDS011;6782;55.904;13.396;2023-11-22T03:02:06;3.80;;;3.50;;
13421;SDS011;6782;55.904;13.396;2023-11-22T03:04:53;3.70;;;3.30;;
13421;SDS011;6782;55.904;13.396;2023-11-22T03:07:41;3.27;;;2.97;;
13421;SDS011;6782;55.904;13.396;2023-11-22T03:10:28;3.70;;;3.30;;
13421;SDS011;6782;55.904;13.396;2023-11-22T03:13:15;3.87;;;3.43;;
13421;SDS011;6782;55.904;13.396;2023-11-22T03:16:04;4.27;;;3.80;;
13421;SDS011;6782;55.904;13.396;2023-11-22T03:18:52;3.97;;;3.50;;
13421;SDS011;6782;55.904;13.396;2023-11-22T03:21:39;4.37;;;3.67;;
13421;SDS011;6782;55.904;13.396;2023-11-22T03:24:29;5.43;;;3.50;;
13421;SDS011;6782;55.904;13.396;2023-11-22T03:27:16;5.23;;;3.70;;
13421;SDS011;6782;55.904;13.396;2023-11-22T03:30:04;5.43;;;4.10;;
13421;SDS011;6782;55.904;13.396;2023-11-22T03:32:57;4.60;;;3.30;;
13421;SDS011;6782;55.904;13.396;2023-11-22T03:35:45;4.33;;;3.57;;
13421;SDS011;6782;55.904;13.396;2023-11-22T03:38:32;4.23;;;3.47;;
13421;SDS011;6782;55.904;13.396;2023-11-22T03:41:19;4.57;;;3.50;;
13421;SDS011;6782;55.904;13.396;2023-11-22T03:44:06;4.63;;;3.70;;
13421;SDS011;6782;55.904;13.396;2023-11-22T03:46:54;3.27;;;2.97;;
13421;SDS011;6782;55.904;13.396;2023-11-22T03:49:42;3.43;;;3.13;;
13421;SDS011;6782;55.904;13.396;2023-11-22T03:52:29;4.00;;;3.60;;
13421;SDS011;6782;55.904;13.396;2023-11-22T03:55:16;3.80;;;3.20;;
13421;SDS011;6782;55.904;13.396;2023-11-22T03:58:03;5.13;;;3.83;;
13421;SDS011;6782;55.904;13.396;2023-11-22T04:00:51;4.23;;;3.33;;
13421;SDS011;6782;55.904;13.396;2023-11-22T04:03:38;4.00;;;3.13;;
13421;SDS011;6782;55.904;13.396;2023-11-22T04:06:27;4.13;;;3.60;;
13421;SDS011;6782;55.904;13.396;2023-11-22T04:09:14;5.03;;;3.80;;
13421;SDS011;6782;55.904;13.396;2023-11-22T04:12:02;3.63;;;2.87;;
13421;SDS011;6782;55.904;13.396;2023-11-22T04:14:50;4.60;;;3.47;;
13421;SDS011;6782;55.904;13.396;2023-11-22T04:17:37;4.47;;;3.73;;
13421;SDS011;6782;55.904;13.396;2023-11-22T04:20:25;3.70;;;3.17;;
13421;SDS011;6782;55.904;13.396;2023-11-22T04:23:13;3.97;;;2.87;;
13421;SDS011;6782;55.904;13.396;2023-11-22T04:26:01;3.50;;;3.20;;
13421;SDS011;6782;55.904;13.396;2023-11-22T04:28:49;4.10;;;3.70;;
13421;SDS011;6782;55.904;13.396;2023-11-22T04:31:36;3.57;;;3.27;;
13421;SDS011;6782;55.904;13.396;2023-11-22T04:34:23;5.53;;;3.57;;
13421;SDS011;6782;55.904;13.396;2023-11-22T04:37:10;5.37;;;3.80;;
13421;SDS011;6782;55.904;13.396;2023-11-22T04:39:59;3.93;;;3.43;;
13421;SDS011;6782;55.904;13.396;2023-11-22T04:42:48;4.90;;;4.40;;
13421;SDS011;6782;55.904;13.396;2023-11-22T04:45:36;4.83;;;3.70;;
13421;SDS011;6782;55.904;13.396;2023-11-22T04:48:23;4.73;;;3.70;;
13421;SDS011;6782;55.904;13.396;2023-11-22T04:51:10;4.90;;;4.10;;
13421;SDS011;6782;55.904;13.396;2023-11-22T04:53:57;5.40;;;4.03;;
13421;SDS011;6782;55.904;13.396;2023-11-22T04:56:46;8.33;;;4.00;;
13421;SDS011;6782;55.904;13.396;2023-11-22T04:59:33;12.47;;;4.60;;
13421;SDS011;6782;55.904;13.396;2023-11-22T05:02:20;4.87;;;3.97;;
13421;SDS011;6782;55.904;13.396;2023-11-22T05:05:07;4.90;;;3.70;;
13421;SDS011;6782;55.904;13.396;2023-11-22T05:07:57;6.83;;;4.07;;
13421;SDS011;6782;55.904;13.396;2023-11-22T05:10:44;5.27;;;4.13;;
13421;SDS011;6782;55.904;13.396;2023-11-22T05:13:32;5.40;;;3.60;;
13421;SDS011;6782;55.904;13.396;2023-11-22T05:16:19;4.90;;;4.03;;
13421;SDS011;6782;55.904;13.396;2023-11-22T05:19:06;5.77;;;4.80;;
13421;SDS011;6782;55.904;13.396;2023-11-22T05:21:54;7.50;;;4.43;;
13421;SDS011;6782;55.904;13.396;2023-11-22T05:24:41;5.33;;;4.67;;
13421;SDS011;6782;55.904;13.396;2023-11-22T05:27:28;5.17;;;4.00;;
13421;SDS011;6782;55.904;13.396;2023-11-22T05:30:18;5.23;;;3.93;;
13421;SDS011;6782;55.904;13.396;2023-11-22T05:33:06;7.77;;;4.23;;
13421;SDS011;6782;55.904;13.396;2023-11-22T05:35:53;9.13;;;4.20;;
13421;SDS011;6782;55.904;13.396;2023-11-22T05:38:41;5.40;;;4.33;;
13421;SDS011;6782;55.904;13.396;2023-11-22T05:41:28;5.03;;;3.97;;
13421;SDS011;6782;55.904;13.396;2023-11-22T05:44:15;5.30;;;3.77;;
13421;SDS011;6782;55.904;13.396;2023-11-22T05:47:04;5.60;;;3.77;;
13421;SDS011;6782;55.904;13.396;2023-11-22T05:49:53;5.30;;;3.60;;
13421;SDS011;6782;55.904;13.396;2023-11-22T05:52:42;5.93;;;4.17;;
13421;SDS011;6782;55.904;13.396;2023-11-22T05:55:29;4.47;;;3.60;;
13421;SDS011;6782;55.904;13.396;2023-11-22T05:58:16;4.73;;;3.90;;
13421;SDS011;6782;55.904;13.396;2023-11-22T06:01:04;5.33;;;4.80;;
13421;SDS011;6782;55.904;13.396;2023-11-22T06:03:53;6.63;;;5.40;;
13421;SDS011;6782;55.904;13.396;2023-11-22T06:06:40;7.23;;;6.40;;
13421;SDS011;6782;55.904;13.396;2023-11-22T06:09:27;8.27;;;5.60;;
13421;SDS011;6782;55.904;13.396;2023-11-22T06:12:15;9.13;;;6.40;;
13421;SDS011;6782;55.904;13.396;2023-11-22T06:15:02;9.83;;;6.27;;
13421;SDS011;6782;55.904;13.396;2023-11-22T06:17:50;10.67;;;5.80;;
13421;SDS011;6782;55.904;13.396;2023-11-22T06:20:39;6.10;;;4.40;;
13421;SDS011;6782;55.904;13.396;2023-11-22T06:23:27;8.67;;;5.10;;
13421;SDS011;6782;55.904;13.396;2023-11-22T06:26:14;16.43;;;6.07;;
13421;SDS011;6782;55.904;13.396;2023-11-22T06:29:01;13.67;;;5.93;;
13421;SDS011;6782;55.904;13.396;2023-11-22T06:31:48;11.83;;;6.63;;
13421;SDS011;6782;55.904;13.396;2023-11-22T06:34:36;12.93;;;6.83;;
13421;SDS011;6782;55.904;13.396;2023-11-22T06:37:24;10.97;;;7.07;;
13421;SDS011;6782;55.904;13.396;2023-11-22T06:40:12;9.37;;;6.43;;
13421;SDS011;6782;55.904;13.396;2023-11-22T06:42:59;11.93;;;7.70;;
13421;SDS011;6782;55.904;13.396;2023-11-22T06:45:46;13.43;;;7.33;;
13421;SDS011;6782;55.904;13.396;2023-11-22T06:48:33;11.53;;;6.87;;
13421;SDS011;6782;55.904;13.396;2023-11-22T06:51:20;8.37;;;5.50;;
13421;SDS011;6782;55.904;13.396;2023-11-22T06:54:09;7.53;;;5.73;;
13421;SDS011;6782;55.904;13.396;2023-11-22T06:57:02;10.77;;;6.73;;
13421;SDS011;6782;55.904;13.396;2023-11-22T06:59:50;11.60;;;9.77;;
13421;SDS011;6782;55.904;13.396;2023-11-22T07:02:37;11.47;;;8.73;;
13421;SDS011;6782;55.904;13.396;2023-11-22T07:05:25;12.53;;;8.27;;
13421;SDS011;6782;55.904;13.396;2023-11-22T07:08:12;10.57;;;7.17;;
13421;SDS011;6782;55.904;13.396;2023-11-22T07:11:03;8.73;;;6.63;;
13421;SDS011;6782;55.904;13.396;2023-11-22T07:13:53;7.03;;;6.30;;
13421;SDS011;6782;55.904;13.396;2023-11-22T07:16:40;12.70;;;7.53;;
13421;SDS011;6782;55.904;13.396;2023-11-22T07:19:27;6.87;;;5.60;;
13421;SDS011;6782;55.904;13.396;2023-11-22T07:22:14;7.23;;;5.57;;
13421;SDS011;6782;55.904;13.396;2023-11-22T07:25:03;9.40;;;6.03;;
13421;SDS011;6782;55.904;13.396;2023-11-22T07:27:54;6.93;;;5.13;;
13421;SDS011;6782;55.904;13.396;2023-11-22T07:30:41;9.17;;;5.70;;
13421;SDS011;6782;55.904;13.396;2023-11-22T07:33:28;8.00;;;7.03;;
13421;SDS011;6782;55.904;13.396;2023-11-22T07:36:16;10.90;;;8.53;;
13421;SDS011;6782;55.904;13.396;2023-11-22T07:39:03;8.30;;;7.17;;
13421;SDS011;6782;55.904;13.396;2023-11-22T07:41:50;7.40;;;6.20;;
13421;SDS011;6782;55.904;13.396;2023-11-22T07:44:40;7.97;;;5.80;;
13421;SDS011;6782;55.904;13.396;2023-11-22T07:47:27;8.03;;;5.53;;
13421;SDS011;6782;55.904;13.396;2023-11-22T07:50:15;5.63;;;4.97;;
13421;SDS011;6782;55.904;13.396;2023-11-22T07:53:02;6.10;;;5.13;;
13421;SDS011;6782;55.904;13.396;2023-11-22T07:55:50;7.67;;;5.33;;
13421;SDS011;6782;55.904;13.396;2023-11-22T07:58:37;6.30;;;4.97;;
13421;SDS011;6782;55.904;13.396;2023-11-22T08:01:26;6.30;;;4.90;;
13421;SDS011;6782;55.904;13.396;2023-11-22T08:04:15;8.63;;;5.43;;
13421;SDS011;6782;55.904;13.396;2023-11-22T08:07:03;7.17;;;5.33;;
13421;SDS011;6782;55.904;13.396;2023-11-22T08:09:50;6.50;;;5.80;;
13421;SDS011;6782;55.904;13.396;2023-11-22T08:12:38;8.07;;;5.70;;
13421;SDS011;6782;55.904;13.396;2023-11-22T08:15:25;7.57;;;4.80;;
13421;SDS011;6782;55.904;13.396;2023-11-22T08:18:14;6.87;;;5.93;;
13421;SDS011;6782;55.904;13.396;2023-11-22T08:21:02;6.27;;;5.67;;
13421;SDS011;6782;55.904;13.396;2023-11-22T08:23:49;7.03;;;5.83;;
13421;SDS011;6782;55.904;13.396;2023-11-22T08:26:38;6.00;;;5.40;;
13421;SDS011;6782;55.904;13.396;2023-11-22T08:29:26;6.27;;;5.30;;
13421;SDS011;6782;55.904;13.396;2023-11-22T08:32:13;8.73;;;6.87;;
13421;SDS011;6782;55.904;13.396;2023-11-22T08:35:01;9.70;;;7.77;;
13421;SDS011;6782;55.904;13.396;2023-11-22T08:37:53;10.33;;;6.60;;
13421;SDS011;6782;55.904;13.396;2023-11-22T08:40:43;6.83;;;6.13;;
13421;SDS011;6782;55.904;13.396;2023-11-22T08:43:30;6.53;;;5.70;;
13421;SDS011;6782;55.904;13.396;2023-11-22T08:46:17;6.80;;;5.70;;
13421;SDS011;6782;55.904;13.396;2023-11-22T08:49:04;6.97;;;5.53;;
13421;SDS011;6782;55.904;13.396;2023-11-22T08:51:53;5.63;;;5.00;;
13421;SDS011;6782;55.904;13.396;2023-11-22T08:54:40;7.20;;;5.20;;
13421;SDS011;6782;55.904;13.396;2023-11-22T08:57:27;6.60;;;5.20;;
13421;SDS011;6782;55.904;13.396;2023-11-22T09:00:16;8.00;;;5.33;;
13421;SDS011;6782;55.904;13.396;2023-11-22T09:03:07;5.17;;;4.67;;
13421;SDS011;6782;55.904;13.396;2023-11-22T09:05:56;6.60;;;4.40;;
13421;SDS011;6782;55.904;13.396;2023-11-22T09:08:44;6.17;;;4.40;;
13421;SDS011;6782;55.904;13.396;2023-11-22T09:11:31;5.57;;;4.77;;
13421;SDS011;6782;55.904;13.396;2023-11-22T09:14:20;5.47;;;4.30;;
13421;SDS011;6782;55.904;13.396;2023-11-22T09:17:08;4.70;;;4.10;;
13421;SDS011;6782;55.904;13.396;2023-11-22T09:19:56;5.10;;;4.57;;
13421;SDS011;6782;55.904;13.396;2023-11-22T09:22:44;4.60;;;4.07;;
13421;SDS011;6782;55.904;13.396;2023-11-22T09:25:34;4.20;;;3.80;;
13421;SDS011;6782;55.904;13.396;2023-11-22T09:28:22;5.63;;;4.10;;
13421;SDS011;6782;55.904;13.396;2023-11-22T09:31:09;5.70;;;3.90;;
13421;SDS011;6782;55.904;13.396;2023-11-22T09:33:58;4.97;;;4.47;;
13421;SDS011;6782;55.904;13.396;2023-11-22T09:36:46;5.63;;;4.10;;
13421;SDS011;6782;55.904;13.396;2023-11-22T09:39:33;5.70;;;4.27;;
13421;SDS011;6782;55.904;13.396;2023-11-22T09:42:23;6.00;;;3.93;;
13421;SDS011;6782;55.904;13.396;2023-11-22T09:45:11;5.07;;;4.57;;
13421;SDS011;6782;55.904;13.396;2023-11-22T09:48:03;4.00;;;3.60;;
13421;SDS011;6782;55.904;13.396;2023-11-22T09:51:01;4.93;;;3.80;;
13421;SDS011;6782;55.904;13.396;2023-11-22T09:53:55;4.43;;;4.03;;
13421;SDS011;6782;55.904;13.396;2023-11-22T09:56:45;6.33;;;4.30;;
13421;SDS011;6782;55.904;13.396;2023-11-22T09:59:37;5.47;;;4.83;;
13421;SDS011;6782;55.904;13.396;2023-11-22T10:02:27;5.60;;;5.00;;
13421;SDS011;6782;55.904;13.396;2023-11-22T10:05:15;5.03;;;4.63;;
13421;SDS011;6782;55.904;13.396;2023-11-22T10:08:03;4.90;;;4.50;;
13421;SDS011;6782;55.904;13.396;2023-11-22T10:10:50;5.23;;;4.73;;
13421;SDS011;6782;55.904;13.396;2023-11-22T10:13:39;5.63;;;4.77;;
13421;SDS011;6782;55.904;13.396;2023-11-22T10:16:28;6.00;;;5.03;;
13421;SDS011;6782;55.904;13.396;2023-11-22T10:19:15;5.30;;;4.80;;
13421;SDS011;6782;55.904;13.396;2023-11-22T10:22:05;5.03;;;4.53;;
13421;SDS011;6782;55.904;13.396;2023-11-22T10:24:53;5.77;;;5.23;;
13421;SDS011;6782;55.904;13.396;2023-11-22T10:27:45;6.70;;;5.43;;
13421;SDS011;6782;55.904;13.396;2023-11-22T10:30:32;6.50;;;5.67;;
13421;SDS011;6782;55.904;13.396;2023-11-22T10:33:22;6.53;;;5.93;;
13421;SDS011;6782;55.904;13.396;2023-11-22T10:36:11;6.63;;;5.13;;
13421;SDS011;6782;55.904;13.396;2023-11-22T10:38:58;7.03;;;5.50;;
13421;SDS011;6782;55.904;13.396;2023-11-22T10:41:46;6.73;;;6.03;;
13421;SDS011;6782;55.904;13.396;2023-11-22T10:44:33;6.37;;;5.77;;
13421;SDS011;6782;55.904;13.396;2023-11-22T10:47:24;6.50;;;5.83;;
13421;SDS011;6782;55.904;13.396;2023-11-22T10:50:17;6.10;;;5.50;;
13421;SDS011;6782;55.904;13.396;2023-11-22T10:53:04;6.60;;;5.50;;
13421;SDS011;6782;55.904;13.396;2023-11-22T10:55:57;7.27;;;6.57;;
13421;SDS011;6782;55.904;13.396;2023-11-22T10:58:50;6.37;;;5.70;;
13421;SDS011;6782;55.904;13.396;2023-11-22T11:01:37;6.83;;;6.13;;
13421;SDS011;6782;55.904;13.396;2023-11-22T11:04:33;7.27;;;5.87;;
13421;SDS011;6782;55.904;13.396;2023-11-22T11:07:27;7.17;;;6.30;;
13421;SDS011;6782;55.904;13.396;2023-11-22T11:10:22;6.83;;;6.03;;
13421;SDS011;6782;55.904;13.396;2023-11-22T11:13:10;6.87;;;5.77;;
13421;SDS011;6782;55.904;13.396;2023-11-22T11:15:57;7.33;;;6.30;;
13421;SDS011;6782;55.904;13.396;2023-11-22T11:18:45;6.23;;;5.63;;
13421;SDS011;6782;55.904;13.396;2023-11-22T11:21:34;6.70;;;5.90;;
13421;SDS011;6782;55.904;13.396;2023-11-22T11:24:22;6.73;;;5.77;;
13421;SDS011;6782;55.904;13.396;2023-11-22T11:27:09;6.40;;;5.23;;
13421;SDS011;6782;55.904;13.396;2023-11-22T11:29:57;7.23;;;5.90;;
13421;SDS011;6782;55.904;13.396;2023-11-22T11:32:44;7.53;;;5.73;;
13421;SDS011;6782;55.904;13.396;2023-11-22T11:35:37;6.63;;;5.93;;
13421;SDS011;6782;55.904;13.396;2023-11-22T11:38:26;7.30;;;6.50;;
13421;SDS011;6782;55.904;13.396;2023-11-22T11:41:23;6.87;;;5.93;;
13421;SDS011;6782;55.904;13.396;2023-11-22T11:44:13;6.67;;;6.07;;
13421;SDS011;6782;55.904;13.396;2023-11-22T11:47:08;7.57;;;6.80;;
13421;SDS011;6782;55.904;13.396;2023-11-22T11:49:56;7.10;;;6.33;;
13421;SDS011;6782;55.904;13.396;2023-11-22T11:52:43;6.97;;;6.10;;
13421;SDS011;6782;55.904;13.396;2023-11-22T11:55:30;6.87;;;6.10;;
13421;SDS011;6782;55.904;13.396;2023-11-22T11:58:19;6.53;;;5.93;;
13421;SDS011;6782;55.904;13.396;2023-11-22T12:01:08;6.50;;;5.80;;
13421;SDS011;6782;55.904;13.396;2023-11-22T12:03:55;8.03;;;5.60;;
13421;SDS011;6782;55.904;13.396;2023-11-22T12:06:43;4.97;;;4.57;;
13421;SDS011;6782;55.904;13.396;2023-11-22T12:09:30;5.73;;;4.73;;
13421;SDS011;6782;55.904;13.396;2023-11-22T12:12:17;5.00;;;4.20;;
13421;SDS011;6782;55.904;13.396;2023-11-22T12:15:07;4.27;;;3.87;;
13421;SDS011;6782;55.904;13.396;2023-11-22T12:17:56;6.40;;;3.73;;
13421;SDS011;6782;55.904;13.396;2023-11-22T12:20:44;4.43;;;3.60;;
13421;SDS011;6782;55.904;13.396;2023-11-22T12:23:41;5.83;;;3.17;;
13421;SDS011;6782;55.904;13.396;2023-11-22T12:26:28;3.77;;;3.10;;
13421;SDS011;6782;55.904;13.396;2023-11-22T12:29:18;3.27;;;2.67;;
13421;SDS011;6782;55.904;13.396;2023-11-22T12:32:07;3.10;;;2.80;;
13421;SDS011;6782;55.904;13.396;2023-11-22T12:34:54;3.47;;;2.50;;
13421;SDS011;6782;55.904;13.396;2023-11-22T12:37:41;2.37;;;2.17;;
13421;SDS011;6782;55.904;13.396;2023-11-22T12:40:30;4.83;;;2.73;;
13421;SDS011;6782;55.904;13.396;2023-11-22T12:43:18;3.87;;;2.10;;
13421;SDS011;6782;55.904;13.396;2023-11-22T12:46:06;2.67;;;1.90;;
13421;SDS011;6782;55.904;13.396;2023-11-22T12:49:06;2.50;;;2.30;;
13421;SDS011;6782;55.904;13.396;2023-11-22T12:51:54;2.33;;;1.90;;
13421;SDS011;6782;55.904;13.396;2023-11-22T12:54:42;2.60;;;2.07;;
13421;SDS011;6782;55.904;13.396;2023-11-22T12:57:33;2.33;;;2.00;;
13421;SDS011;6782;55.904;13.396;2023-11-22T13:00:20;3.00;;;2.00;;
13421;SDS011;6782;55.904;13.396;2023-11-22T13:03:07;2.23;;;1.67;;
13421;SDS011;6782;55.904;13.396;2023-11-22T13:05:57;1.90;;;1.80;;
13421;SDS011;6782;55.904;13.396;2023-11-22T13:08:44;2.77;;;1.80;;
13421;SDS011;6782;55.904;13.396;2023-11-22T13:11:31;2.73;;;1.50;;
13421;SDS011;6782;55.904;13.396;2023-11-22T13:14:19;3.10;;;1.33;;
13421;SDS011;6782;55.904;13.396;2023-11-22T13:17:06;3.73;;;2.20;;
13421;SDS011;6782;55.904;13.396;2023-11-22T13:19:56;2.80;;;1.50;;
13421;SDS011;6782;55.904;13.396;2023-11-22T13:22:45;3.60;;;1.70;;
13421;SDS011;6782;55.904;13.396;2023-11-22T13:25:33;3.87;;;1.90;;
13421;SDS011;6782;55.904;13.396;2023-11-22T13:28:21;2.73;;;1.60;;
13421;SDS011;6782;55.904;13.396;2023-11-22T13:31:10;2.33;;;1.80;;
13421;SDS011;6782;55.904;13.396;2023-11-22T13:33:58;2.33;;;1.87;;
13421;SDS011;6782;55.904;13.396;2023-11-22T13:36:45;2.17;;;1.63;;
13421;SDS011;6782;55.904;13.396;2023-11-22T13:39:33;1.90;;;1.60;;
13421;SDS011;6782;55.904;13.396;2023-11-22T13:42:21;1.70;;;1.60;;
13421;SDS011;6782;55.904;13.396;2023-11-22T13:45:09;2.60;;;1.80;;
13421;SDS011;6782;55.904;13.396;2023-11-22T13:48:00;1.80;;;1.60;;
13421;SDS011;6782;55.904;13.396;2023-11-22T13:50:50;3.00;;;1.57;;
13421;SDS011;6782;55.904;13.396;2023-11-22T13:53:37;2.30;;;1.43;;
13421;SDS011;6782;55.904;13.396;2023-11-22T13:56:29;2.20;;;1.60;;
13421;SDS011;6782;55.904;13.396;2023-11-22T13:59:17;2.57;;;1.57;;
13421;SDS011;6782;55.904;13.396;2023-11-22T14:02:04;2.30;;;1.87;;
13421;SDS011;6782;55.904;13.396;2023-11-22T14:04:52;2.20;;;1.97;;
13421;SDS011;6782;55.904;13.396;2023-11-22T14:07:39;1.90;;;1.33;;
13421;SDS011;6782;55.904;13.396;2023-11-22T14:10:26;5.00;;;1.60;;
13421;SDS011;6782;55.904;13.396;2023-11-22T14:13:16;1.97;;;1.50;;
13421;SDS011;6782;55.904;13.396;2023-11-22T14:16:04;4.80;;;1.83;;
13421;SDS011;6782;55.904;13.396;2023-11-22T14:18:51;1.60;;;1.50;;
13421;SDS011;6782;55.904;13.396;2023-11-22T14:21:39;4.10;;;1.60;;
13421;SDS011;6782;55.904;13.396;2023-11-22T14:24:26;2.77;;;1.50;;
13421;SDS011;6782;55.904;13.396;2023-11-22T14:27:15;2.40;;;1.63;;
13421;SDS011;6782;55.904;13.396;2023-11-22T14:30:05;2.03;;;1.50;;
13421;SDS011;6782;55.904;13.396;2023-11-22T14:32:53;6.10;;;1.70;;
13421;SDS011;6782;55.904;13.396;2023-11-22T14:35:41;2.27;;;1.50;;
13421;SDS011;6782;55.904;13.396;2023-11-22T14:38:29;1.87;;;1.57;;
13421;SDS011;6782;55.904;13.396;2023-11-22T14:41:17;1.67;;;1.40;;
13421;SDS011;6782;55.904;13.396;2023-11-22T14:44:06;1.50;;;1.40;;
13421;SDS011;6782;55.904;13.396;2023-11-22T14:46:56;2.93;;;1.63;;
13421;SDS011;6782;55.904;13.396;2023-11-22T14:49:44;1.80;;;1.70;;
13421;SDS011;6782;55.904;13.396;2023-11-22T14:52:33;2.50;;;1.53;;
13421;SDS011;6782;55.904;13.396;2023-11-22T14:55:20;3.13;;;1.77;;
13421;SDS011;6782;55.904;13.396;2023-11-22T14:58:10;2.83;;;1.87;;
13421;SDS011;6782;55.904;13.396;2023-11-22T15:00:59;5.87;;;1.63;;
13421;SDS011;6782;55.904;13.396;2023-11-22T15:03:48;2.80;;;1.80;;
13421;SDS011;6782;55.904;13.396;2023-11-22T15:06:37;1.50;;;1.30;;
13421;SDS011;6782;55.904;13.396;2023-11-22T15:09:24;2.60;;;1.80;;
13421;SDS011;6782;55.904;13.396;2023-11-22T15:12:11;2.63;;;2.20;;
13421;SDS011;6782;55.904;13.396;2023-11-22T15:14:59;2.93;;;1.63;;
13421;SDS011;6782;55.904;13.396;2023-11-22T15:17:47;2.10;;;1.70;;
13421;SDS011;6782;55.904;13.396;2023-11-22T15:20:36;3.70;;;1.70;;
13421;SDS011;6782;55.904;13.396;2023-11-22T15:23:24;3.17;;;1.60;;
13421;SDS011;6782;55.904;13.396;2023-11-22T15:26:11;2.67;;;1.60;;
13421;SDS011;6782;55.904;13.396;2023-11-22T15:28:59;2.97;;;2.13;;
13421;SDS011;6782;55.904;13.396;2023-11-22T15:31:46;4.03;;;2.50;;
13421;SDS011;6782;55.904;13.396;2023-11-22T15:34:34;3.07;;;1.83;;
13421;SDS011;6782;55.904;13.396;2023-11-22T15:37:24;3.13;;;2.00;;
13421;SDS011;6782;55.904;13.396;2023-11-22T15:40:12;4.53;;;2.03;;
13421;SDS011;6782;55.904;13.396;2023-11-22T15:43:02;2.40;;;1.90;;
13421;SDS011;6782;55.904;13.396;2023-11-22T15:45:50;2.50;;;1.57;;
13421;SDS011;6782;55.904;13.396;2023-11-22T15:48:40;2.50;;;1.60;;
13421;SDS011;6782;55.904;13.396;2023-11-22T15:51:29;2.20;;;1.50;;
13421;SDS011;6782;55.904;13.396;2023-11-22T15:54:18;2.83;;;1.83;;
13421;SDS011;6782;55.904;13.396;2023-11-22T15:57:05;2.33;;;1.60;;
13421;SDS011;6782;55.904;13.396;2023-11-22T15:59:52;1.97;;;1.40;;
13421;SDS011;6782;55.904;13.396;2023-11-22T16:02:39;3.27;;;1.97;;
13421;SDS011;6782;55.904;13.396;2023-11-22T16:05:26;4.80;;;1.73;;
13421;SDS011;6782;55.904;13.396;2023-11-22T16:08:14;2.83;;;1.80;;
13421;SDS011;6782;55.904;13.396;2023-11-22T16:11:03;3.43;;;1.70;;
13421;SDS011;6782;55.904;13.396;2023-11-22T16:13:51;4.23;;;2.10;;
13421;SDS011;6782;55.904;13.396;2023-11-22T16:16:39;3.23;;;1.70;;
13421;SDS011;6782;55.904;13.396;2023-11-22T16:19:26;2.90;;;2.10;;
13421;SDS011;6782;55.904;13.396;2023-11-22T16:22:14;2.20;;;1.70;;
13421;SDS011;6782;55.904;13.396;2023-11-22T16:25:01;3.00;;;1.80;;
13421;SDS011;6782;55.904;13.396;2023-11-22T16:27:50;3.30;;;1.67;;
13421;SDS011;6782;55.904;13.396;2023-11-22T16:30:38;3.83;;;1.70;;
13421;SDS011;6782;55.904;13.396;2023-11-22T16:33:25;3.17;;;1.60;;
13421;SDS011;6782;55.904;13.396;2023-11-22T16:36:15;3.83;;;1.53;;
13421;SDS011;6782;55.904;13.396;2023-11-22T16:39:06;2.40;;;1.30;;
13421;SDS011;6782;55.904;13.396;2023-11-22T16:41:53;3.20;;;1.60;;
13421;SDS011;6782;55.904;13.396;2023-11-22T16:44:44;2.33;;;1.60;;
13421;SDS011;6782;55.904;13.396;2023-11-22T16:47:35;2.20;;;1.63;;
13421;SDS011;6782;55.904;13.396;2023-11-22T16:50:23;1.83;;;1.60;;
13421;SDS011;6782;55.904;13.396;2023-11-22T16:53:11;3.83;;;1.90;;